sensor_id;sensor_type;location;lat;lon;timestamp;pressure;altitude;pressure_sealevel;temperature;humidity
25759;BME280;13604;52.496;13.456;2022-07-18T00:02:23;102188.41;;;15.87;80.44
25759;BME280;13604;52.496;13.456;2022-07-18T00:04:48;102189.25;;;15.87;80.17
25759;BME280;13604;52.496;13.456;2022-07-18T00:07:14;102192.63;;;15.89;79.97
25759;BME280;13604;52.496;13.456;2022-07-18T00:09:40;102194.78;;;15.97;79.10
25759;BME280;13604;52.496;13.456;2022-07-18T00:12:07;102184.28;;;15.97;78.79
25759;BME280;13604;52.496;13.456;2022-07-18T00:14:33;102183.91;;;16.03;78.37
25759;BME280;13604;52.496;13.456;2022-07-18T00:16:58;102172.34;;;16.06;77.71
25759;BME280;13604;52.496;13.456;2022-07-18T00:19:24;102167.69;;;16.11;77.47
25759;BME280;13604;52.496;13.456;2022-07-18T00:21:49;102173.31;;;16.19;77.19
25759;BME280;13604;52.496;13.456;2022-07-18T00:24:15;102168.81;;;16.21;76.84
25759;BME280;13604;52.496;13.456;2022-07-18T00:26:40;102167.94;;;16.20;77.01
25759;BME280;13604;52.496;13.456;2022-07-18T00:29:05;102164.19;;;16.24;76.51
25759;BME280;13604;52.496;13.456;2022-07-18T00:31:31;102170.19;;;16.26;76.49
25759;BME280;13604;52.496;13.456;2022-07-18T00:33:56;102172.81;;;16.26;76.38
25759;BME280;13604;52.496;13.456;2022-07-18T00:36:21;102185.03;;;16.27;76.25
25759;BME280;13604;52.496;13.456;2022-07-18T00:38:46;102185.13;;;16.26;76.30
25759;BME280;13604;52.496;13.456;2022-07-18T00:41:16;102186.16;;;16.23;76.55
25759;BME280;13604;52.496;13.456;2022-07-18T00:43:41;102184.34;;;16.24;76.73
25759;BME280;13604;52.496;13.456;2022-07-18T00:46:07;102193.22;;;16.23;76.69
25759;BME280;13604;52.496;13.456;2022-07-18T00:48:32;102188.03;;;16.21;76.35
25759;BME280;13604;52.496;13.456;2022-07-18T00:50:57;102194.31;;;16.19;76.49
25759;BME280;13604;52.496;13.456;2022-07-18T00:53:24;102191.13;;;16.14;76.40
25759;BME280;13604;52.496;13.456;2022-07-18T00:55:50;102188.88;;;16.08;76.50
25759;BME280;13604;52.496;13.456;2022-07-18T00:58:16;102192.63;;;16.03;76.66
25759;BME280;13604;52.496;13.456;2022-07-18T01:00:42;102183.34;;;15.98;76.87
25759;BME280;13604;52.496;13.456;2022-07-18T01:03:26;102189.88;;;15.91;77.35
25759;BME280;13604;52.496;13.456;2022-07-18T01:05:51;102185.78;;;15.87;77.61
25759;BME280;13604;52.496;13.456;2022-07-18T01:08:17;102181.53;;;15.84;78.02
25759;BME280;13604;52.496;13.456;2022-07-18T01:10:42;102181.47;;;15.86;78.17
25759;BME280;13604;52.496;13.456;2022-07-18T01:13:08;102187.56;;;15.86;78.19
25759;BME280;13604;52.496;13.456;2022-07-18T01:15:34;102182.41;;;15.85;78.34
25759;BME280;13604;52.496;13.456;2022-07-18T01:17:59;102188.66;;;15.82;78.65
25759;BME280;13604;52.496;13.456;2022-07-18T01:20:29;102184.44;;;15.80;78.80
25759;BME280;13604;52.496;13.456;2022-07-18T01:22:55;102184.44;;;15.80;78.79
25759;BME280;13604;52.496;13.456;2022-07-18T01:25:20;102180.25;;;15.77;78.82
25759;BME280;13604;52.496;13.456;2022-07-18T01:27:46;102177.63;;;15.77;78.81
25759;BME280;13604;52.496;13.456;2022-07-18T01:30:11;102180.25;;;15.77;79.11
25759;BME280;13604;52.496;13.456;2022-07-18T01:32:37;102171.41;;;15.78;79.46
25759;BME280;13604;52.496;13.456;2022-07-18T01:35:03;102169.22;;;15.71;79.56
25759;BME280;13604;52.496;13.456;2022-07-18T01:37:28;102162.66;;;15.63;80.17
25759;BME280;13604;52.496;13.456;2022-07-18T01:39:54;102168.38;;;15.56;80.53
25759;BME280;13604;52.496;13.456;2022-07-18T01:42:19;102176.41;;;15.53;81.03
25759;BME280;13604;52.496;13.456;2022-07-18T01:44:46;102175.81;;;15.48;81.39
25759;BME280;13604;52.496;13.456;2022-07-18T01:47:11;102177.97;;;15.41;82.42
25759;BME280;13604;52.496;13.456;2022-07-18T01:49:38;102177.56;;;15.33;82.95
25759;BME280;13604;52.496;13.456;2022-07-18T01:52:04;102171.81;;;15.26;82.97
25759;BME280;13604;52.496;13.456;2022-07-18T01:54:31;102185.31;;;15.20;83.74
25759;BME280;13604;52.496;13.456;2022-07-18T01:57:02;102181.44;;;15.12;84.06
25759;BME280;13604;52.496;13.456;2022-07-18T01:59:27;102186.19;;;15.05;84.87
25759;BME280;13604;52.496;13.456;2022-07-18T02:01:53;102195.34;;;14.98;84.95
25759;BME280;13604;52.496;13.456;2022-07-18T02:04:19;102187.72;;;14.93;85.26
25759;BME280;13604;52.496;13.456;2022-07-18T02:06:44;102187.06;;;14.90;85.11
25759;BME280;13604;52.496;13.456;2022-07-18T02:09:10;102184.59;;;14.87;85.33
25759;BME280;13604;52.496;13.456;2022-07-18T02:11:36;102188.41;;;14.81;85.41
25759;BME280;13604;52.496;13.456;2022-07-18T02:14:03;102182.41;;;14.79;85.65
25759;BME280;13604;52.496;13.456;2022-07-18T02:16:28;102184.06;;;14.80;86.07
25759;BME280;13604;52.496;13.456;2022-07-18T02:18:54;102182.13;;;14.84;86.46
25759;BME280;13604;52.496;13.456;2022-07-18T02:21:19;102178.59;;;14.85;86.45
25759;BME280;13604;52.496;13.456;2022-07-18T02:23:45;102177.91;;;14.81;86.57
25759;BME280;13604;52.496;13.456;2022-07-18T02:26:11;102174.03;;;14.73;86.88
25759;BME280;13604;52.496;13.456;2022-07-18T02:28:36;102170.72;;;14.69;87.42
25759;BME280;13604;52.496;13.456;2022-07-18T02:31:03;102163.22;;;14.63;87.69
25759;BME280;13604;52.496;13.456;2022-07-18T02:33:29;102157.97;;;14.63;87.80
25759;BME280;13604;52.496;13.456;2022-07-18T02:35:54;102164.28;;;14.59;88.15
25759;BME280;13604;52.496;13.456;2022-07-18T02:38:19;102172.44;;;14.54;88.64
25759;BME280;13604;52.496;13.456;2022-07-18T02:40:44;102170.13;;;14.48;89.08
25759;BME280;13604;52.496;13.456;2022-07-18T02:43:10;102173.19;;;14.41;89.86
25759;BME280;13604;52.496;13.456;2022-07-18T02:45:35;102170.09;;;14.33;90.50
25759;BME280;13604;52.496;13.456;2022-07-18T02:48:00;102173.81;;;14.29;91.06
25759;BME280;13604;52.496;13.456;2022-07-18T02:50:26;102165.59;;;14.19;91.72
25759;BME280;13604;52.496;13.456;2022-07-18T02:52:51;102170.13;;;14.15;92.65
25759;BME280;13604;52.496;13.456;2022-07-18T02:55:16;102173.09;;;14.09;93.38
25759;BME280;13604;52.496;13.456;2022-07-18T02:57:42;102165.66;;;14.02;93.87
25759;BME280;13604;52.496;13.456;2022-07-18T03:00:10;102171.81;;;14.01;94.41
25759;BME280;13604;52.496;13.456;2022-07-18T03:02:36;102174.75;;;13.95;94.79
25759;BME280;13604;52.496;13.456;2022-07-18T03:05:02;102180.91;;;13.94;95.06
25759;BME280;13604;52.496;13.456;2022-07-18T03:07:28;102171.47;;;13.91;95.36
25759;BME280;13604;52.496;13.456;2022-07-18T03:09:53;102175.84;;;13.91;95.67
25759;BME280;13604;52.496;13.456;2022-07-18T03:12:18;102172.53;;;13.87;96.41
25759;BME280;13604;52.496;13.456;2022-07-18T03:14:44;102162.75;;;13.91;96.42
25759;BME280;13604;52.496;13.456;2022-07-18T03:17:10;102164.75;;;13.85;96.85
25759;BME280;13604;52.496;13.456;2022-07-18T03:19:35;102169.91;;;13.87;97.43
25759;BME280;13604;52.496;13.456;2022-07-18T03:22:02;102166.53;;;13.85;97.83
25759;BME280;13604;52.496;13.456;2022-07-18T03:24:27;102170.91;;;13.84;98.40
25759;BME280;13604;52.496;13.456;2022-07-18T03:26:52;102165.81;;;13.81;98.56
25759;BME280;13604;52.496;13.456;2022-07-18T03:29:18;102172.59;;;13.85;98.84
25759;BME280;13604;52.496;13.456;2022-07-18T03:31:43;102173.53;;;13.84;99.10
25759;BME280;13604;52.496;13.456;2022-07-18T03:34:08;102167.59;;;13.81;99.31
25759;BME280;13604;52.496;13.456;2022-07-18T03:36:34;102160.50;;;13.83;99.33
25759;BME280;13604;52.496;13.456;2022-07-18T03:38:59;102164.16;;;13.80;99.54
25759;BME280;13604;52.496;13.456;2022-07-18T03:41:24;102164.16;;;13.80;99.60
25759;BME280;13604;52.496;13.456;2022-07-18T03:43:50;102167.59;;;13.81;99.98
25759;BME280;13604;52.496;13.456;2022-07-18T03:46:15;102163.31;;;13.80;100.00
25759;BME280;13604;52.496;13.456;2022-07-18T03:48:40;102164.91;;;13.82;100.00
25759;BME280;13604;52.496;13.456;2022-07-18T03:51:06;102160.50;;;13.83;100.00
25759;BME280;13604;52.496;13.456;2022-07-18T03:53:31;102164.44;;;13.92;100.00
25759;BME280;13604;52.496;13.456;2022-07-18T03:55:57;102170.28;;;13.97;100.00
25759;BME280;13604;52.496;13.456;2022-07-18T03:58:22;102167.44;;;14.01;100.00
25759;BME280;13604;52.496;13.456;2022-07-18T04:00:47;102172.56;;;14.03;99.88
25759;BME280;13604;52.496;13.456;2022-07-18T04:03:13;102178.34;;;14.09;99.92
25759;BME280;13604;52.496;13.456;2022-07-18T04:05:38;102172.34;;;14.07;100.00
25759;BME280;13604;52.496;13.456;2022-07-18T04:08:04;102172.84;;;14.14;100.00
25759;BME280;13604;52.496;13.456;2022-07-18T04:10:29;102169.22;;;14.16;100.00
25759;BME280;13604;52.496;13.456;2022-07-18T04:12:55;102175.16;;;14.20;100.00
25759;BME280;13604;52.496;13.456;2022-07-18T04:15:23;102178.53;;;14.22;100.00
25759;BME280;13604;52.496;13.456;2022-07-18T04:17:49;102170.59;;;14.24;100.00
25759;BME280;13604;52.496;13.456;2022-07-18T04:20:15;102172.09;;;14.28;100.00
25759;BME280;13604;52.496;13.456;2022-07-18T04:22:55;102170.94;;;14.33;100.00
25759;BME280;13604;52.496;13.456;2022-07-18T04:25:24;102165.31;;;14.41;100.00
25759;BME280;13604;52.496;13.456;2022-07-18T04:27:49;102168.03;;;14.55;100.00
25759;BME280;13604;52.496;13.456;2022-07-18T04:30:16;102159.66;;;14.64;100.00
25759;BME280;13604;52.496;13.456;2022-07-18T04:32:42;102160.16;;;14.71;100.00
25759;BME280;13604;52.496;13.456;2022-07-18T04:35:08;102165.91;;;14.77;100.00
25759;BME280;13604;52.496;13.456;2022-07-18T04:37:35;102167.25;;;14.84;100.00
25759;BME280;13604;52.496;13.456;2022-07-18T04:40:01;102153.69;;;14.92;100.00
25759;BME280;13604;52.496;13.456;2022-07-18T04:42:26;102161.47;;;15.09;100.00
25759;BME280;13604;52.496;13.456;2022-07-18T04:44:52;102162.38;;;15.24;100.00
25759;BME280;13604;52.496;13.456;2022-07-18T04:47:17;102159.19;;;15.33;99.67
25759;BME280;13604;52.496;13.456;2022-07-18T04:49:43;102155.94;;;15.44;99.25
25759;BME280;13604;52.496;13.456;2022-07-18T04:52:08;102163.13;;;15.56;98.67
25759;BME280;13604;52.496;13.456;2022-07-18T04:54:34;102168.59;;;15.67;97.76
25759;BME280;13604;52.496;13.456;2022-07-18T04:56:59;102160.16;;;15.76;96.65
25759;BME280;13604;52.496;13.456;2022-07-18T04:59:24;102155.28;;;15.84;95.53
25759;BME280;13604;52.496;13.456;2022-07-18T05:01:50;102156.41;;;15.94;94.86
25759;BME280;13604;52.496;13.456;2022-07-18T05:04:15;102157.63;;;16.03;94.29
25759;BME280;13604;52.496;13.456;2022-07-18T05:06:40;102151.34;;;16.06;93.40
25759;BME280;13604;52.496;13.456;2022-07-18T05:09:05;102155.75;;;16.19;91.49
25759;BME280;13604;52.496;13.456;2022-07-18T05:11:31;102153.38;;;16.29;89.98
25759;BME280;13604;52.496;13.456;2022-07-18T05:13:56;102157.03;;;16.41;90.33
25759;BME280;13604;52.496;13.456;2022-07-18T05:16:21;102146.88;;;16.49;90.29
25759;BME280;13604;52.496;13.456;2022-07-18T05:18:47;102152.38;;;16.58;88.78
25759;BME280;13604;52.496;13.456;2022-07-18T05:21:12;102153.72;;;16.65;87.77
25759;BME280;13604;52.496;13.456;2022-07-18T05:23:37;102154.63;;;16.79;85.49
25759;BME280;13604;52.496;13.456;2022-07-18T05:26:03;102144.63;;;16.84;85.47
25759;BME280;13604;52.496;13.456;2022-07-18T05:28:28;102142.25;;;16.93;84.86
25759;BME280;13604;52.496;13.456;2022-07-18T05:30:53;102161.47;;;17.08;83.40
25759;BME280;13604;52.496;13.456;2022-07-18T05:33:20;102148.72;;;17.15;82.99
25759;BME280;13604;52.496;13.456;2022-07-18T05:35:45;102149.69;;;17.26;81.94
25759;BME280;13604;52.496;13.456;2022-07-18T05:38:10;102161.84;;;17.41;81.19
25759;BME280;13604;52.496;13.456;2022-07-18T05:40:36;102159.84;;;17.58;80.88
25759;BME280;13604;52.496;13.456;2022-07-18T05:43:01;102149.91;;;17.75;79.65
25759;BME280;13604;52.496;13.456;2022-07-18T05:45:27;102148.94;;;17.89;77.27
25759;BME280;13604;52.496;13.456;2022-07-18T05:47:53;102141.94;;;18.01;76.15
25759;BME280;13604;52.496;13.456;2022-07-18T05:50:18;102146.34;;;18.13;75.44
25759;BME280;13604;52.496;13.456;2022-07-18T05:52:44;102149.19;;;18.23;74.11
25759;BME280;13604;52.496;13.456;2022-07-18T05:55:10;102147.91;;;18.41;73.42
25759;BME280;13604;52.496;13.456;2022-07-18T05:57:35;102134.56;;;18.55;72.14
25759;BME280;13604;52.496;13.456;2022-07-18T06:00:04;102134.41;;;18.69;72.53
25759;BME280;13604;52.496;13.456;2022-07-18T06:02:29;102129.91;;;18.82;71.82
25759;BME280;13604;52.496;13.456;2022-07-18T06:04:55;102134.63;;;18.90;72.17
25759;BME280;13604;52.496;13.456;2022-07-18T06:07:20;102135.28;;;19.05;72.05
25759;BME280;13604;52.496;13.456;2022-07-18T06:09:45;102131.00;;;19.15;71.34
25759;BME280;13604;52.496;13.456;2022-07-18T06:12:11;102135.16;;;19.30;71.38
25759;BME280;13604;52.496;13.456;2022-07-18T06:14:36;102133.13;;;19.45;70.18
25759;BME280;13604;52.496;13.456;2022-07-18T06:17:02;102137.03;;;19.52;65.76
25759;BME280;13604;52.496;13.456;2022-07-18T06:19:27;102136.66;;;19.56;65.05
25759;BME280;13604;52.496;13.456;2022-07-18T06:21:52;102143.06;;;19.65;64.64
25759;BME280;13604;52.496;13.456;2022-07-18T06:24:17;102143.53;;;19.70;64.44
25759;BME280;13604;52.496;13.456;2022-07-18T06:26:43;102146.41;;;19.78;64.22
25759;BME280;13604;52.496;13.456;2022-07-18T06:29:08;102143.66;;;19.91;63.58
25759;BME280;13604;52.496;13.456;2022-07-18T06:31:33;102146.78;;;20.07;64.59
25759;BME280;13604;52.496;13.456;2022-07-18T06:33:59;102143.91;;;20.21;64.68
25759;BME280;13604;52.496;13.456;2022-07-18T06:36:24;102154.13;;;20.37;63.76
25759;BME280;13604;52.496;13.456;2022-07-18T06:38:50;102154.22;;;20.47;61.53
25759;BME280;13604;52.496;13.456;2022-07-18T06:41:16;102144.25;;;20.50;62.21
25759;BME280;13604;52.496;13.456;2022-07-18T06:43:41;102152.03;;;20.63;62.42
25759;BME280;13604;52.496;13.456;2022-07-18T06:46:07;102154.38;;;20.77;60.55
25759;BME280;13604;52.496;13.456;2022-07-18T06:48:33;102151.72;;;20.77;60.15
25759;BME280;13604;52.496;13.456;2022-07-18T06:51:03;102162.28;;;20.88;59.24
25759;BME280;13604;52.496;13.456;2022-07-18T06:53:29;102153.31;;;21.00;60.26
25759;BME280;13604;52.496;13.456;2022-07-18T06:55:55;102157.03;;;21.09;59.05
25759;BME280;13604;52.496;13.456;2022-07-18T06:58:20;102158.09;;;21.18;57.64
25759;BME280;13604;52.496;13.456;2022-07-18T07:00:46;102157.09;;;21.30;56.26
25759;BME280;13604;52.496;13.456;2022-07-18T07:03:11;102159.94;;;21.38;55.51
25759;BME280;13604;52.496;13.456;2022-07-18T07:05:36;102155.22;;;21.41;55.33
25759;BME280;13604;52.496;13.456;2022-07-18T07:08:02;102151.53;;;21.54;54.15
25759;BME280;13604;52.496;13.456;2022-07-18T07:10:27;102143.41;;;21.55;53.00
25759;BME280;13604;52.496;13.456;2022-07-18T07:12:52;102144.06;;;21.68;54.02
25759;BME280;13604;52.496;13.456;2022-07-18T07:15:20;102148.72;;;21.55;51.74
25759;BME280;13604;52.496;13.456;2022-07-18T07:17:46;102134.78;;;21.53;52.32
25759;BME280;13604;52.496;13.456;2022-07-18T07:20:12;102137.91;;;21.68;51.21
25759;BME280;13604;52.496;13.456;2022-07-18T07:22:47;102134.06;;;21.82;52.34
25759;BME280;13604;52.496;13.456;2022-07-18T07:25:14;102129.84;;;21.69;49.71
25759;BME280;13604;52.496;13.456;2022-07-18T07:27:40;102128.16;;;21.68;50.73
25759;BME280;13604;52.496;13.456;2022-07-18T07:30:06;102118.28;;;21.80;54.52
25759;BME280;13604;52.496;13.456;2022-07-18T07:32:39;102120.59;;;21.94;52.24
25759;BME280;13604;52.496;13.456;2022-07-18T07:35:05;102124.31;;;22.12;51.50
25759;BME280;13604;52.496;13.456;2022-07-18T07:37:39;102118.75;;;22.15;47.29
25759;BME280;13604;52.496;13.456;2022-07-18T07:40:06;102115.81;;;22.19;49.25
25759;BME280;13604;52.496;13.456;2022-07-18T07:42:32;102115.41;;;22.33;49.64
25759;BME280;13604;52.496;13.456;2022-07-18T07:44:57;102124.91;;;22.26;47.79
25759;BME280;13604;52.496;13.456;2022-07-18T07:47:23;102117.69;;;22.37;48.69
25759;BME280;13604;52.496;13.456;2022-07-18T07:49:48;102110.28;;;22.50;48.66
25759;BME280;13604;52.496;13.456;2022-07-18T07:52:13;102108.88;;;22.56;47.50
25759;BME280;13604;52.496;13.456;2022-07-18T07:54:42;102111.28;;;22.59;49.17
25759;BME280;13604;52.496;13.456;2022-07-18T07:57:10;102105.25;;;22.67;48.90
25759;BME280;13604;52.496;13.456;2022-07-18T07:59:35;102085.44;;;22.80;49.15
25759;BME280;13604;52.496;13.456;2022-07-18T08:02:01;102102.06;;;23.02;47.83
25759;BME280;13604;52.496;13.456;2022-07-18T08:04:26;102108.75;;;23.25;48.09
25759;BME280;13604;52.496;13.456;2022-07-18T08:06:51;102103.25;;;23.46;46.44
25759;BME280;13604;52.496;13.456;2022-07-18T08:09:17;102115.16;;;23.88;46.68
25759;BME280;13604;52.496;13.456;2022-07-18T08:11:42;102117.50;;;24.28;44.09
25759;BME280;13604;52.496;13.456;2022-07-18T08:14:08;102124.84;;;24.62;42.93
25759;BME280;13604;52.496;13.456;2022-07-18T08:16:34;102117.25;;;24.85;43.88
25759;BME280;13604;52.496;13.456;2022-07-18T08:18:59;102121.13;;;25.34;43.07
25759;BME280;13604;52.496;13.456;2022-07-18T08:21:24;102125.69;;;25.93;40.27
25759;BME280;13604;52.496;13.456;2022-07-18T08:23:50;102126.53;;;26.02;38.44
25759;BME280;13604;52.496;13.456;2022-07-18T08:26:15;102113.22;;;26.18;38.23
25759;BME280;13604;52.496;13.456;2022-07-18T08:28:40;102098.53;;;26.72;37.86
25759;BME280;13604;52.496;13.456;2022-07-18T08:31:06;102104.84;;;26.88;37.03
25759;BME280;13604;52.496;13.456;2022-07-18T08:33:31;102097.31;;;27.32;36.18
25759;BME280;13604;52.496;13.456;2022-07-18T08:35:56;102096.41;;;27.72;35.91
25759;BME280;13604;52.496;13.456;2022-07-18T08:38:22;102099.47;;;27.61;34.35
25759;BME280;13604;52.496;13.456;2022-07-18T08:40:47;102111.22;;;27.27;34.37
25759;BME280;13604;52.496;13.456;2022-07-18T08:43:14;102109.53;;;27.18;33.67
25759;BME280;13604;52.496;13.456;2022-07-18T08:45:42;102118.91;;;26.98;34.21
25759;BME280;13604;52.496;13.456;2022-07-18T08:48:08;102110.53;;;26.76;33.88
25759;BME280;13604;52.496;13.456;2022-07-18T08:50:34;102107.84;;;26.76;33.96
25759;BME280;13604;52.496;13.456;2022-07-18T08:53:00;102103.19;;;26.87;34.38
25759;BME280;13604;52.496;13.456;2022-07-18T08:55:26;102104.00;;;26.46;34.42
25759;BME280;13604;52.496;13.456;2022-07-18T08:57:51;102099.69;;;26.70;33.73
25759;BME280;13604;52.496;13.456;2022-07-18T09:00:17;102105.34;;;26.67;35.30
25759;BME280;13604;52.496;13.456;2022-07-18T09:02:43;102108.19;;;26.65;34.31
25759;BME280;13604;52.496;13.456;2022-07-18T09:05:17;102107.53;;;27.20;35.21
25759;BME280;13604;52.496;13.456;2022-07-18T09:07:43;102102.66;;;27.95;34.50
25759;BME280;13604;52.496;13.456;2022-07-18T09:10:08;102093.63;;;28.58;35.27
25759;BME280;13604;52.496;13.456;2022-07-18T09:12:33;102092.03;;;29.24;32.77
25759;BME280;13604;52.496;13.456;2022-07-18T09:15:09;102099.66;;;29.79;29.45
25759;BME280;13604;52.496;13.456;2022-07-18T09:17:38;102091.97;;;29.76;28.89
25759;BME280;13604;52.496;13.456;2022-07-18T09:20:06;102096.94;;;29.20;29.98
25759;BME280;13604;52.496;13.456;2022-07-18T09:22:35;102105.53;;;28.78;30.79
25759;BME280;13604;52.496;13.456;2022-07-18T09:25:07;102097.97;;;28.59;29.05
25759;BME280;13604;52.496;13.456;2022-07-18T09:27:42;102098.25;;;28.87;29.75
25759;BME280;13604;52.496;13.456;2022-07-18T09:30:14;102096.63;;;29.38;28.88
25759;BME280;13604;52.496;13.456;2022-07-18T09:32:41;102103.63;;;29.83;29.02
25759;BME280;13604;52.496;13.456;2022-07-18T09:35:16;102092.38;;;30.88;27.30
25759;BME280;13604;52.496;13.456;2022-07-18T09:37:52;102091.72;;;30.58;27.66
25759;BME280;13604;52.496;13.456;2022-07-18T09:40:20;102090.75;;;31.49;28.24
25759;BME280;13604;52.496;13.456;2022-07-18T09:42:54;102100.03;;;31.74;25.67
25759;BME280;13604;52.496;13.456;2022-07-18T09:45:28;102087.72;;;32.00;24.31
25759;BME280;13604;52.496;13.456;2022-07-18T09:48:02;102093.28;;;32.99;25.03
25759;BME280;13604;52.496;13.456;2022-07-18T09:50:37;102091.66;;;33.88;24.36
25759;BME280;13604;52.496;13.456;2022-07-18T09:53:15;102073.16;;;34.80;24.00
25759;BME280;13604;52.496;13.456;2022-07-18T09:55:52;102077.94;;;34.84;23.04
25759;BME280;13604;52.496;13.456;2022-07-18T09:58:24;102077.09;;;34.84;22.53
25759;BME280;13604;52.496;13.456;2022-07-18T10:00:51;102088.00;;;34.46;22.81
25759;BME280;13604;52.496;13.456;2022-07-18T10:03:17;102087.53;;;34.55;23.37
25759;BME280;13604;52.496;13.456;2022-07-18T10:05:44;102080.94;;;34.69;22.11
25759;BME280;13604;52.496;13.456;2022-07-18T10:08:13;102076.50;;;35.80;22.37
25759;BME280;13604;52.496;13.456;2022-07-18T10:10:40;102081.81;;;36.34;21.48
25759;BME280;13604;52.496;13.456;2022-07-18T10:13:07;102070.66;;;37.01;21.73
25759;BME280;13604;52.496;13.456;2022-07-18T10:15:35;102065.50;;;36.76;19.75
25759;BME280;13604;52.496;13.456;2022-07-18T10:18:03;102078.47;;;36.86;20.76
25759;BME280;13604;52.496;13.456;2022-07-18T10:20:38;102058.59;;;37.43;19.25
25759;BME280;13604;52.496;13.456;2022-07-18T10:23:25;102072.31;;;37.37;20.17
25759;BME280;13604;52.496;13.456;2022-07-18T10:26:11;102065.78;;;37.49;19.98
25759;BME280;13604;52.496;13.456;2022-07-18T10:31:23;102073.75;;;36.93;18.88
25759;BME280;13604;52.496;13.456;2022-07-18T10:33:49;102060.75;;;37.06;19.97
25759;BME280;13604;52.496;13.456;2022-07-18T10:36:17;102070.31;;;37.32;20.94
25759;BME280;13604;52.496;13.456;2022-07-18T10:39:05;102068.91;;;37.18;19.20
25759;BME280;13604;52.496;13.456;2022-07-18T10:41:32;102063.72;;;37.16;19.78
25759;BME280;13604;52.496;13.456;2022-07-18T10:43:58;102071.38;;;37.31;19.65
25759;BME280;13604;52.496;13.456;2022-07-18T10:46:23;102074.34;;;37.06;19.10
25759;BME280;13604;52.496;13.456;2022-07-18T10:48:50;102065.50;;;36.76;20.10
25759;BME280;13604;52.496;13.456;2022-07-18T10:51:17;102062.50;;;35.46;20.02
25759;BME280;13604;52.496;13.456;2022-07-18T10:59:22;102058.13;;;36.11;20.58
25759;BME280;13604;52.496;13.456;2022-07-18T11:01:55;102051.00;;;36.29;21.31
25759;BME280;13604;52.496;13.456;2022-07-18T11:04:25;102054.91;;;36.33;20.01
25759;BME280;13604;52.496;13.456;2022-07-18T11:07:09;102044.34;;;35.47;20.74
25759;BME280;13604;52.496;13.456;2022-07-18T11:09:45;102049.31;;;35.86;20.31
25759;BME280;13604;52.496;13.456;2022-07-18T11:12:22;102048.03;;;35.89;20.63
25759;BME280;13604;52.496;13.456;2022-07-18T11:15:11;102039.03;;;36.71;20.05
25759;BME280;13604;52.496;13.456;2022-07-18T11:17:56;102045.25;;;37.42;18.91
25759;BME280;13604;52.496;13.456;2022-07-18T11:20:26;102045.66;;;38.19;18.80
25759;BME280;13604;52.496;13.456;2022-07-18T11:22:52;102037.47;;;39.03;18.01
25759;BME280;13604;52.496;13.456;2022-07-18T11:25:18;102017.03;;;39.44;18.35
25759;BME280;13604;52.496;13.456;2022-07-18T11:27:44;102035.88;;;39.99;17.81
25759;BME280;13604;52.496;13.456;2022-07-18T11:30:16;102029.63;;;40.67;17.05
25759;BME280;13604;52.496;13.456;2022-07-18T11:32:41;102028.22;;;41.64;16.51
25759;BME280;13604;52.496;13.456;2022-07-18T11:35:07;102028.25;;;41.74;15.11
25759;BME280;13604;52.496;13.456;2022-07-18T11:37:34;102025.84;;;40.31;15.88
25759;BME280;13604;52.496;13.456;2022-07-18T11:40:07;102014.63;;;40.28;15.65
25759;BME280;13604;52.496;13.456;2022-07-18T11:42:37;102016.69;;;38.97;15.84
25759;BME280;13604;52.496;13.456;2022-07-18T11:45:04;102014.31;;;37.31;17.64
25759;BME280;13604;52.496;13.456;2022-07-18T11:47:29;102003.50;;;36.73;18.88
25759;BME280;13604;52.496;13.456;2022-07-18T11:49:55;102012.38;;;37.43;17.52
25759;BME280;13604;52.496;13.456;2022-07-18T11:52:21;102011.34;;;38.51;17.01
25759;BME280;13604;52.496;13.456;2022-07-18T11:54:46;101993.81;;;39.19;17.16
25759;BME280;13604;52.496;13.456;2022-07-18T11:57:12;102005.44;;;41.49;15.17
25759;BME280;13604;52.496;13.456;2022-07-18T11:59:39;101999.00;;;42.41;13.54
25759;BME280;13604;52.496;13.456;2022-07-18T12:02:04;101995.69;;;42.13;13.78
25759;BME280;13604;52.496;13.456;2022-07-18T12:04:30;102005.03;;;42.38;13.47
25759;BME280;13604;52.496;13.456;2022-07-18T12:07:15;101980.91;;;41.99;14.62
25759;BME280;13604;52.496;13.456;2022-07-18T12:09:42;101991.59;;;42.06;13.61
25759;BME280;13604;52.496;13.456;2022-07-18T12:12:11;101983.31;;;39.33;15.57
25759;BME280;13604;52.496;13.456;2022-07-18T12:14:37;101993.13;;;38.90;16.75
25759;BME280;13604;52.496;13.456;2022-07-18T12:17:04;101988.38;;;39.41;16.68
25759;BME280;13604;52.496;13.456;2022-07-18T12:19:35;101980.59;;;39.33;16.39
25759;BME280;13604;52.496;13.456;2022-07-18T12:22:11;101973.34;;;41.14;14.29
25759;BME280;13604;52.496;13.456;2022-07-18T12:24:55;101967.66;;;41.25;15.67
25759;BME280;13604;52.496;13.456;2022-07-18T12:30:03;101974.31;;;36.92;16.76
25759;BME280;13604;52.496;13.456;2022-07-18T12:32:56;101970.78;;;34.95;18.79
25759;BME280;13604;52.496;13.456;2022-07-18T12:35:28;101971.53;;;35.20;19.63
25759;BME280;13604;52.496;13.456;2022-07-18T12:38:14;101976.16;;;35.13;19.21
25759;BME280;13604;52.496;13.456;2022-07-18T12:45:37;101973.03;;;33.67;22.34
25759;BME280;13604;52.496;13.456;2022-07-18T12:48:05;101958.75;;;34.16;22.22
25759;BME280;13604;52.496;13.456;2022-07-18T12:50:31;101960.50;;;34.36;20.62
25759;BME280;13604;52.496;13.456;2022-07-18T12:52:57;101946.13;;;34.10;20.64
25759;BME280;13604;52.496;13.456;2022-07-18T12:55:22;101938.91;;;34.54;20.80
25759;BME280;13604;52.496;13.456;2022-07-18T12:57:48;101939.84;;;35.39;20.10